CA-0126 weather

Public forecast

Using degrees Celsius for public forecast. Weather courtesy of forecast.io.

Closest aviation weather report (METAR) to Namao Airport

Closest report is Edmonton (CFB Namao) Heliport, 0.9 nm (1.7 km) SSW. Retrieved 2020/08/14 10:00 UTC (54 minutes ago):

CYED 141000Z AUTO 28005KT 9SM CLR 11/07 A2997 RMK SLP156

Closest aviation forecast (TAF) to Namao Airport

Closest forecast is Edmonton (CFB Namao) Heliport, 0.9 nm (1.7 km) SSW. Retrieved 2020/08/14 06:33 UTC (4 hours ago):

TAF TAF CYED 140530Z 1406/1418 VRB03KT P6SM FEW090 BECMG 1410/1412 27008KT FM141600 27008KT P6SM BKN050 BECMG 1416/1418 27008G18KT RMK FCST BASED ON AUTO OBS 140600-141500Z NXT FCST BY 141200Z